Wenden, Arizona
Current Conditions -  °F | °C
As of 2:35 AM on Friday 28 Nov 2014 (Local Time) from KBXK Reporting Station
NA  
Wind Chill: 43°   Ceiling: NA
Heat Index: 46°   Visibility: 9mi
Dew Point: 18°   Wind: 7mph
Humidity: 32%   Direction: 330°NNW
Pressure: 30.05"   Gusts: NA
Location:  33.82°N, 113.54°W
Report Text: KBXK 280935Z AUTO 33006KT 9SM 08/M08 A3005 RMK AO1
Loading
Personal Weather Stations






























Interactive Weather Map New forecast layout! Learn more

10-Day Weather Forecast

Advertisements
Track Severe Weather on mobile